Main page
METAR-TAF:

METAR-TAF

Airports :

New Ulm Municipal Airport

New Ulm, Minnesota, United States

latitude: 44-19N, longitude: 094-30W, elevation: 1010 ft

Current weather observation

The report was made 1 hour and 45 minutes ago, at 10:54 UTC
Wind 6 mph from the East
Temperature 55°F
Humidity 94%
Pressure 29.78 in. Hg
Visibility: 10 miles
Clear sky

METAR: KULM 201054Z AUTO 08005KT 10SM CLR 13/12 A2978 RMK AO2

Time: 07:39 (12:39 UTC)


TAF: missing

Weather observations and forecasts of more than 4000 airports (METAR and TAF reports).

The available stations are represented by yellow and red dots on the map.

Hover mouse over dot to see the name of the station.

Then click to see weather observations and forecasts.

To change the map : click on the green buttons with a black cross to zoom in, on the green button with a dash to zoom out, or on the green arrows for adjacent maps.


METAR-TAF: